Hauptseite
METAR-TAF:

METAR-TAF

Flughäfen :

Fliegerhorst Schleswig

Schleswig-Jagel, Deutschland

Breite: 54-28N, Länge: 009-31E, Höhe: 22 m

Beobachtung

Neuester Wetterbericht von vor 40 Minuten, um 18:20 UTC
Wind 16 kt aus Südwest
Temperatur 16°C
Luftfeuchtigkeit 94%
Luftdruck 1008 hPa
Sichtweite: 3900 m

METAR: ETNS 191820Z AUTO 22016KT 3900 // ////// 16/15 Q1008 ///

Zeit: 21:00 (19:00 UTC)

Prognose

Neuester Wetterbericht von vor 5 Stunden und 38 Minuten, um 13:22 UTC
Gültige Prognose vom 19 um 14 UTC bis 19 um 23 UTC
Wind 10 kt aus Süd/Südwest
Sichtweite: 3000 m
Durchbrochene Bewölkung in der Höhe von 500 ft
feuchter Dunst
Zeitweise
vom 19 um 14 UTC bis 19 um 23 UTC
Wind 15 kt aus Südwest
Sichtweite: 1000 m
Geschlossene Wolkendecke in der Höhe von 200 ft
Regen, Sprühregen

TAF: ETNS 191322Z 1914/1923 21010KT 3000 BR BKN005 TEMPO 1914/1923 22015KT 1000 RADZ OVC002 BY ETGL

Wetterbeobachtungen und Prognosen von mehr als 4000 Flughäfen (METAR und TAF Bericht).

Die verfügbaren Stationen werden durch gelbe und rote Markierungen auf der Karte dargestellt.

Führen Sie die Maus auf sie, um den Namen der Station zu sehen.

Darauf klicken, um die Beobachtung von Wetterbeobachtungen und Prognosen zu sehen.

Um die Karte zu ändern : klicken Sie auf den grünen Tasten mit einem schwarzen Kreuz Zum Vergrößern, auf den grünen Button mit einem Gedankenstrich zu verkleinern, oder auf die grünen Pfeile für benachbarte Karten.


METAR-TAF: